createdAt,value
2018-02-21T00:01:26.135Z,43.40
2018-02-21T00:03:54.516Z,43.70
2018-02-21T00:06:22.789Z,43.70
2018-02-21T00:08:51.044Z,43.60
2018-02-21T00:11:20.149Z,43.90
2018-02-21T00:13:48.418Z,44.00
2018-02-21T00:16:17.426Z,44.30
2018-02-21T00:18:45.693Z,44.30
2018-02-21T00:21:14.065Z,44.00
2018-02-21T00:23:43.435Z,44.30
2018-02-21T00:26:11.690Z,44.30
2018-02-21T00:28:39.933Z,44.30
2018-02-21T00:31:08.222Z,43.90
2018-02-21T00:33:36.678Z,44.20
2018-02-21T00:36:05.724Z,44.70
2018-02-21T00:38:34.084Z,44.80
2018-02-21T00:41:02.341Z,45.00
2018-02-21T00:43:30.610Z,45.10
2018-02-21T00:45:58.918Z,45.10
2018-02-21T00:48:27.800Z,44.90
2018-02-21T00:50:56.055Z,44.90
2018-02-21T00:53:24.347Z,44.90
2018-02-21T00:55:52.612Z,44.90
2018-02-21T00:58:20.878Z,44.80
2018-02-21T01:00:50.521Z,44.50
2018-02-21T01:03:18.857Z,44.50
2018-02-21T01:05:47.088Z,44.30
2018-02-21T01:08:15.581Z,44.50
2018-02-21T01:10:43.825Z,44.60
2018-02-21T01:13:12.066Z,44.60
2018-02-21T01:15:40.352Z,44.30
2018-02-21T01:18:08.604Z,43.90
2018-02-21T01:20:36.869Z,44.00
2018-02-21T01:23:05.176Z,44.20
2018-02-21T01:25:34.251Z,44.80
2018-02-21T01:28:03.223Z,44.80
2018-02-21T01:30:32.440Z,45.10
2018-02-21T01:33:00.687Z,44.80
2018-02-21T01:35:28.997Z,45.30
2018-02-21T01:37:57.478Z,45.30
2018-02-21T01:40:25.752Z,45.10
2018-02-21T01:42:53.990Z,45.00
2018-02-21T01:45:22.221Z,45.00
2018-02-21T01:47:51.379Z,44.70
2018-02-21T01:50:20.226Z,44.80
2018-02-21T01:52:48.482Z,44.70
2018-02-21T01:55:17.564Z,44.80
2018-02-21T01:57:46.680Z,44.80
2018-02-21T02:00:14.943Z,44.80
2018-02-21T02:02:44.081Z,45.00
2018-02-21T02:05:12.360Z,45.10
2018-02-21T02:07:40.624Z,44.90
2018-02-21T02:10:11.213Z,45.00
2018-02-21T02:12:39.532Z,45.00
2018-02-21T02:15:07.906Z,45.00
2018-02-21T02:17:36.232Z,44.80
2018-02-21T02:20:04.508Z,44.90
2018-02-21T02:22:33.580Z,44.70
2018-02-21T02:25:05.837Z,44.60
2018-02-21T02:27:34.095Z,44.70
2018-02-21T02:30:02.806Z,44.50
2018-02-21T02:32:31.151Z,44.20
2018-02-21T02:35:00.237Z,44.60
2018-02-21T02:37:29.345Z,44.80
2018-02-21T02:40:01.589Z,45.00
2018-02-21T02:42:29.838Z,45.00
2018-02-21T02:44:58.092Z,45.10
2018-02-21T02:47:26.340Z,45.40
2018-02-21T02:49:54.694Z,45.30
2018-02-21T02:52:22.947Z,45.00
2018-02-21T02:54:51.239Z,45.10
2018-02-21T02:57:19.490Z,45.40
2018-02-21T02:59:47.752Z,45.60
2018-02-21T03:02:15.992Z,45.90
2018-02-21T03:04:45.123Z,46.10
2018-02-21T03:07:13.423Z,46.20
2018-02-21T03:09:41.669Z,46.20
2018-02-21T03:12:10.249Z,46.50
2018-02-21T03:14:38.671Z,46.60
2018-02-21T03:17:06.913Z,46.50
2018-02-21T03:19:35.169Z,46.70
2018-02-21T03:22:03.476Z,47.20
2018-02-21T03:24:32.096Z,47.10
2018-02-21T03:27:01.227Z,47.20
2018-02-21T03:29:29.970Z,47.20
2018-02-21T03:31:58.817Z,47.10
2018-02-21T03:34:27.112Z,47.10
2018-02-21T03:36:55.364Z,47.00
2018-02-21T03:39:23.634Z,47.30
2018-02-21T03:41:51.978Z,47.20
2018-02-21T03:44:20.201Z,47.30
2018-02-21T03:46:48.463Z,47.40
2018-02-21T03:49:16.725Z,47.40
2018-02-21T03:51:45.747Z,47.50
2018-02-21T03:54:14.084Z,47.60
2018-02-21T03:56:43.202Z,47.50
2018-02-21T03:59:11.473Z,47.70
2018-02-21T04:01:39.768Z,47.40
2018-02-21T04:04:08.032Z,47.30
2018-02-21T04:06:36.305Z,47.20
2018-02-21T04:09:05.414Z,47.40
2018-02-21T04:11:33.702Z,47.50
2018-02-21T04:14:01.954Z,47.50
2018-02-21T04:16:30.229Z,47.20
2018-02-21T04:19:00.169Z,47.30
2018-02-21T04:21:28.440Z,47.30
2018-02-21T04:23:56.785Z,47.40
2018-02-21T04:26:25.018Z,47.60
2018-02-21T04:28:53.285Z,47.60
2018-02-21T04:31:22.054Z,47.70
2018-02-21T04:33:50.410Z,47.90
2018-02-21T04:36:18.718Z,48.00
2018-02-21T04:38:46.978Z,48.10
2018-02-21T04:41:15.221Z,48.10
2018-02-21T04:43:44.345Z,48.30
2018-02-21T04:46:12.590Z,48.30
2018-02-21T04:48:40.821Z,48.20
2018-02-21T04:51:09.562Z,48.20
2018-02-21T04:53:38.715Z,48.60
2018-02-21T04:56:12.601Z,48.50
2018-02-21T04:58:46.570Z,48.60
2018-02-21T05:01:14.997Z,48.80
2018-02-21T05:03:43.248Z,48.60
2018-02-21T05:06:11.601Z,48.30
2018-02-21T05:08:39.832Z,48.40
2018-02-21T05:11:08.066Z,48.20
2018-02-21T05:13:37.118Z,47.90
2018-02-21T05:16:05.428Z,47.90
2018-02-21T05:18:33.677Z,47.60
2018-02-21T05:21:01.953Z,47.60
2018-02-21T05:23:30.253Z,47.40
2018-02-21T05:25:59.401Z,47.50
2018-02-21T05:28:27.649Z,47.60
2018-02-21T05:30:55.890Z,47.80
2018-02-21T05:33:24.210Z,47.70
2018-02-21T05:35:52.566Z,47.60
2018-02-21T05:38:21.693Z,47.40
2018-02-21T05:40:50.140Z,47.60
2018-02-21T05:43:18.648Z,47.50
2018-02-21T05:45:48.663Z,47.50
2018-02-21T05:48:16.922Z,47.90
2018-02-21T05:50:45.943Z,47.70
2018-02-21T05:53:15.017Z,47.70
2018-02-21T05:55:44.126Z,47.70
2018-02-21T05:58:12.393Z,47.80
2018-02-21T06:00:40.764Z,47.60
2018-02-21T06:03:09.028Z,47.70
2018-02-21T06:05:37.288Z,47.80
2018-02-21T06:08:05.523Z,47.70
2018-02-21T06:10:33.817Z,47.70
2018-02-21T06:13:02.249Z,47.50
2018-02-21T06:15:31.298Z,47.00
2018-02-21T06:17:59.646Z,47.30
2018-02-21T06:20:27.979Z,47.20
2018-02-21T06:22:56.250Z,47.30
2018-02-21T06:25:24.514Z,47.50
2018-02-21T06:27:52.802Z,47.50
2018-02-21T06:30:21.886Z,48.00
2018-02-21T06:32:50.142Z,47.80
2018-02-21T06:35:18.368Z,48.20
2018-02-21T06:37:47.559Z,48.50
2018-02-21T06:40:15.788Z,48.30
2018-02-21T06:42:44.062Z,48.30
2018-02-21T06:45:12.293Z,48.60
2018-02-21T06:47:41.397Z,48.60
2018-02-21T06:50:09.747Z,48.80
2018-02-21T06:52:37.993Z,48.70
2018-02-21T06:55:06.233Z,48.60
2018-02-21T06:57:34.507Z,48.60
2018-02-21T07:00:02.767Z,48.50
2018-02-21T07:02:34.851Z,48.60
2018-02-21T07:05:03.229Z,48.70
2018-02-21T07:07:31.706Z,48.90
2018-02-21T07:10:00.823Z,48.60
2018-02-21T07:12:29.154Z,48.90
2018-02-21T07:14:57.398Z,49.00
2018-02-21T07:17:25.694Z,49.00
2018-02-21T07:19:53.958Z,49.20
2018-02-21T07:22:22.212Z,49.40
2018-02-21T07:24:50.513Z,49.30
2018-02-21T07:27:18.752Z,49.40
2018-02-21T07:29:47.042Z,49.30
2018-02-21T07:32:15.328Z,49.10
2018-02-21T07:34:43.561Z,49.10
2018-02-21T07:37:11.826Z,49.00
2018-02-21T07:39:40.984Z,49.00
2018-02-21T07:42:09.245Z,49.00
2018-02-21T07:44:37.482Z,49.10
2018-02-21T07:47:06.602Z,49.00
2018-02-21T07:49:36.958Z,48.90
2018-02-21T07:52:05.333Z,48.80
2018-02-21T07:54:33.588Z,48.60
2018-02-21T07:57:01.829Z,48.40
2018-02-21T07:59:30.974Z,48.50
2018-02-21T08:01:59.402Z,48.60
2018-02-21T08:04:28.414Z,49.20
2018-02-21T08:06:56.669Z,49.30
2018-02-21T08:09:24.936Z,50.80
2018-02-21T08:11:53.174Z,50.40
2018-02-21T08:14:21.475Z,49.80
2018-02-21T08:16:50.507Z,49.00
2018-02-21T08:19:20.092Z,48.70
2018-02-21T08:21:48.427Z,48.60
2018-02-21T08:24:16.764Z,48.70
2018-02-21T08:26:45.943Z,48.60
2018-02-21T08:29:14.162Z,48.60
2018-02-21T08:31:42.411Z,48.40
2018-02-21T08:34:11.541Z,48.60
2018-02-21T08:36:39.811Z,48.60
2018-02-21T08:39:08.058Z,48.40
2018-02-21T08:41:37.184Z,48.20
2018-02-21T08:44:05.436Z,48.20
2018-02-21T08:46:33.709Z,48.10
2018-02-21T08:49:02.877Z,48.20
2018-02-21T08:51:31.118Z,48.90
2018-02-21T08:53:59.379Z,48.30
2018-02-21T08:56:27.654Z,48.50
2018-02-21T08:58:55.952Z,48.60
2018-02-21T09:01:24.983Z,48.20
2018-02-21T09:03:53.264Z,48.20
2018-02-21T09:06:21.641Z,48.20
2018-02-21T09:08:49.862Z,48.00
2018-02-21T09:11:18.112Z,48.10
2018-02-21T09:13:47.280Z,47.80
2018-02-21T09:16:15.530Z,47.80
2018-02-21T09:18:43.845Z,47.80
2018-02-21T09:21:12.119Z,47.90
2018-02-21T09:23:40.471Z,47.60
2018-02-21T09:26:08.817Z,47.50
2018-02-21T09:28:37.126Z,47.50
2018-02-21T09:31:05.486Z,47.80
2018-02-21T09:33:33.813Z,47.90
2018-02-21T09:36:02.905Z,47.80
2018-02-21T09:38:32.220Z,47.70
2018-02-21T09:41:01.543Z,47.50
2018-02-21T09:43:29.814Z,47.50
2018-02-21T09:45:58.682Z,47.50
2018-02-21T09:48:27.794Z,47.20
2018-02-21T09:50:56.091Z,47.20
2018-02-21T09:53:24.382Z,47.20
2018-02-21T09:55:52.649Z,47.00
2018-02-21T09:58:20.906Z,46.70
2018-02-21T10:00:49.177Z,46.40
2018-02-21T10:03:18.454Z,46.40
2018-02-21T10:05:47.478Z,45.70
2018-02-21T10:08:15.869Z,46.10
2018-02-21T10:10:44.171Z,46.00
2018-02-21T10:13:12.462Z,46.20
2018-02-21T10:15:41.496Z,46.10
2018-02-21T10:18:09.763Z,45.90
2018-02-21T10:20:39.601Z,45.40
2018-02-21T10:23:07.961Z,45.50
2018-02-21T10:25:36.243Z,45.30
2018-02-21T10:28:04.543Z,45.30
2018-02-21T10:30:32.788Z,45.20
2018-02-21T10:33:01.807Z,45.00
2018-02-21T10:35:30.116Z,45.20
2018-02-21T10:37:58.367Z,44.70
2018-02-21T10:40:26.706Z,44.80
2018-02-21T10:42:55.828Z,44.40
2018-02-21T10:45:24.073Z,44.40
2018-02-21T10:47:53.231Z,44.20
2018-02-21T10:50:21.670Z,44.20
2018-02-21T10:52:49.920Z,44.20
2018-02-21T10:55:19.270Z,44.30
2018-02-21T10:57:47.516Z,44.20
2018-02-21T11:00:21.399Z,43.70
2018-02-21T11:02:49.625Z,43.50
2018-02-21T11:05:17.978Z,43.50
2018-02-21T11:07:46.373Z,43.40
2018-02-21T11:10:14.641Z,43.00
2018-02-21T11:12:42.986Z,42.90
2018-02-21T11:15:11.468Z,42.70
2018-02-21T11:17:39.700Z,42.50
2018-02-21T11:20:07.930Z,42.50
2018-02-21T11:22:37.070Z,42.50
2018-02-21T11:25:05.394Z,42.30
2018-02-21T11:27:33.623Z,42.00
2018-02-21T11:30:02.528Z,42.00
2018-02-21T11:32:30.808Z,42.20
2018-02-21T11:34:59.045Z,41.90
2018-02-21T11:37:27.375Z,41.90
2018-02-21T11:39:56.657Z,41.60
2018-02-21T11:42:24.906Z,41.40
2018-02-21T11:44:53.202Z,41.30
2018-02-21T11:47:21.533Z,41.00
2018-02-21T11:49:49.790Z,41.40
2018-02-21T11:52:18.056Z,41.30
2018-02-21T11:54:46.364Z,41.20
2018-02-21T11:57:14.729Z,40.60
2018-02-21T11:59:43.957Z,41.20
2018-02-21T12:02:12.481Z,40.70
2018-02-21T12:04:40.862Z,40.60
2018-02-21T12:07:09.120Z,40.60
2018-02-21T12:09:37.376Z,40.40
2018-02-21T12:12:05.637Z,40.10
2018-02-21T12:14:34.742Z,40.10
2018-02-21T12:17:03.025Z,40.00
2018-02-21T12:19:31.301Z,39.90
2018-02-21T12:21:59.560Z,39.50
2018-02-21T12:24:27.868Z,39.50
2018-02-21T12:26:56.134Z,39.40
2018-02-21T12:29:24.389Z,39.40
2018-02-21T12:31:57.509Z,39.10
2018-02-21T12:34:26.142Z,39.10
2018-02-21T12:36:54.367Z,39.00
2018-02-21T12:39:28.634Z,39.20
2018-02-21T12:41:57.018Z,38.80
2018-02-21T12:44:26.152Z,38.90
2018-02-21T12:46:54.665Z,38.80
2018-02-21T12:49:23.138Z,38.40
2018-02-21T12:51:51.965Z,38.60
2018-02-21T12:54:21.792Z,38.60
2018-02-21T12:56:50.053Z,38.40
2018-02-21T12:59:19.163Z,38.20
2018-02-21T13:01:47.443Z,38.40
2018-02-21T13:04:15.721Z,38.30
2018-02-21T13:06:44.094Z,38.70
2018-02-21T13:09:13.203Z,38.50
2018-02-21T13:11:41.491Z,38.40
2018-02-21T13:14:09.739Z,38.50
2018-02-21T13:16:39.074Z,38.50
2018-02-21T13:19:08.166Z,38.30
2018-02-21T13:21:36.484Z,38.40
2018-02-21T13:24:08.915Z,38.20
2018-02-21T13:26:37.178Z,37.60
2018-02-21T13:29:05.442Z,37.70
2018-02-21T13:31:34.605Z,37.80
2018-02-21T13:34:02.857Z,37.70
2018-02-21T13:36:31.130Z,38.00
2018-02-21T13:38:59.390Z,37.60
2018-02-21T13:41:27.666Z,37.70
2018-02-21T13:43:56.055Z,37.40
2018-02-21T13:46:25.586Z,37.30
2018-02-21T13:48:53.937Z,37.30
2018-02-21T13:51:22.783Z,37.70
2018-02-21T13:53:50.993Z,37.80
2018-02-21T13:56:19.250Z,38.00
2018-02-21T13:58:47.651Z,37.90
2018-02-21T14:01:16.778Z,37.60
2018-02-21T14:03:45.139Z,37.70
2018-02-21T14:06:13.506Z,37.80
2018-02-21T14:08:42.413Z,37.40
2018-02-21T14:11:10.665Z,37.50
2018-02-21T14:13:38.934Z,37.60
2018-02-21T14:16:07.224Z,37.80
2018-02-21T14:18:35.512Z,37.70
2018-02-21T14:21:03.808Z,38.00
2018-02-21T14:23:32.260Z,38.00
2018-02-21T14:26:00.565Z,38.00
2018-02-21T14:28:28.833Z,38.60
2018-02-21T14:30:57.250Z,38.20
2018-02-21T14:33:26.826Z,39.10
2018-02-21T14:35:55.078Z,38.00
2018-02-21T14:38:23.373Z,38.30
2018-02-21T14:40:51.627Z,38.20
2018-02-21T14:43:20.954Z,38.10
2018-02-21T14:45:49.225Z,38.20
2018-02-21T14:48:17.740Z,38.00
2018-02-21T14:50:45.976Z,38.10
2018-02-21T14:53:14.265Z,37.60
2018-02-21T14:55:43.216Z,37.80
2018-02-21T14:58:15.573Z,38.90
2018-02-21T15:00:43.842Z,38.30
2018-02-21T15:03:12.315Z,38.40
2018-02-21T15:05:40.826Z,38.70
2018-02-21T15:08:09.244Z,38.40
2018-02-21T15:10:37.726Z,38.70
2018-02-21T15:13:05.989Z,39.00
2018-02-21T15:15:36.087Z,39.30
2018-02-21T15:18:05.085Z,39.20
2018-02-21T15:20:34.339Z,39.00
2018-02-21T15:23:02.593Z,39.30
2018-02-21T15:25:30.845Z,39.30
2018-02-21T15:27:59.218Z,39.30
2018-02-21T15:30:27.617Z,39.20
2018-02-21T15:32:55.889Z,39.50
2018-02-21T15:35:24.162Z,39.50
2018-02-21T15:37:52.430Z,39.60
2018-02-21T15:40:20.700Z,39.60
2018-02-21T15:42:48.965Z,39.70
2018-02-21T15:45:17.325Z,39.50
2018-02-21T15:47:45.516Z,39.70
2018-02-21T15:50:14.622Z,39.80
2018-02-21T15:52:42.898Z,39.80
2018-02-21T15:55:11.180Z,39.70
2018-02-21T15:57:39.666Z,39.80
2018-02-21T16:00:07.928Z,39.80
2018-02-21T16:02:36.293Z,39.80
2018-02-21T16:05:04.595Z,39.80
2018-02-21T16:07:32.881Z,39.50
2018-02-21T16:10:01.118Z,39.70
2018-02-21T16:12:29.421Z,39.60
2018-02-21T16:14:57.839Z,39.60
2018-02-21T16:17:30.245Z,39.40
2018-02-21T16:19:59.843Z,39.30
2018-02-21T16:22:28.121Z,39.10
2018-02-21T16:24:56.376Z,39.30
2018-02-21T16:27:24.628Z,39.20
2018-02-21T16:29:52.906Z,39.80
2018-02-21T16:32:21.154Z,39.10
2018-02-21T16:34:49.411Z,38.80
2018-02-21T16:37:18.577Z,38.90
2018-02-21T16:39:47.550Z,38.80
2018-02-21T16:42:15.882Z,39.00
2018-02-21T16:44:44.269Z,39.20
2018-02-21T16:47:12.667Z,39.50
2018-02-21T16:49:40.975Z,39.70
2018-02-21T16:52:09.260Z,39.80
2018-02-21T16:54:38.496Z,39.80
2018-02-21T16:57:06.848Z,39.80
2018-02-21T16:59:35.087Z,40.00
2018-02-21T17:02:03.362Z,40.10
2018-02-21T17:04:31.689Z,40.20
2018-02-21T17:06:59.954Z,40.20
2018-02-21T17:09:28.237Z,40.50
2018-02-21T17:11:56.485Z,40.60
2018-02-21T17:14:24.762Z,40.70
2018-02-21T17:16:53.034Z,40.60
2018-02-21T17:19:21.309Z,40.90
2018-02-21T17:21:49.614Z,40.80
2018-02-21T17:24:17.865Z,40.70
2018-02-21T17:26:46.169Z,40.60
2018-02-21T17:29:15.240Z,40.70
2018-02-21T17:31:43.513Z,40.60
2018-02-21T17:34:11.787Z,40.80
2018-02-21T17:36:40.096Z,40.80
2018-02-21T17:39:08.356Z,40.90
2018-02-21T17:41:36.617Z,40.90
2018-02-21T17:44:05.577Z,40.80
2018-02-21T17:46:34.249Z,40.80
2018-02-21T17:49:02.657Z,40.90
2018-02-21T17:51:31.868Z,40.90
2018-02-21T17:54:00.349Z,40.70
2018-02-21T17:56:30.104Z,40.70
2018-02-21T17:59:02.950Z,40.60
2018-02-21T18:01:31.489Z,40.80
2018-02-21T18:04:00.145Z,40.90
2018-02-21T18:06:38.386Z,41.30
2018-02-21T18:09:06.654Z,41.10
2018-02-21T18:11:34.941Z,41.50
2018-02-21T18:14:03.241Z,41.30
2018-02-21T18:16:31.524Z,41.20
2018-02-21T18:18:59.835Z,41.20
2018-02-21T18:21:33.857Z,41.20
2018-02-21T18:24:02.403Z,41.20
2018-02-21T18:26:30.722Z,41.50
2018-02-21T18:28:59.813Z,41.20
2018-02-21T18:31:28.886Z,41.30
2018-02-21T18:33:57.738Z,41.40
2018-02-21T18:36:26.006Z,41.80
2018-02-21T18:38:54.374Z,41.50
2018-02-21T18:41:22.650Z,41.60
2018-02-21T18:43:50.956Z,41.40
2018-02-21T18:46:19.204Z,41.50
2018-02-21T18:48:48.305Z,41.50
2018-02-21T18:51:16.827Z,41.40
2018-02-21T18:53:45.084Z,41.30
2018-02-21T18:56:13.374Z,41.60
2018-02-21T18:58:41.646Z,41.30
2018-02-21T19:01:09.922Z,41.40
2018-02-21T19:03:38.231Z,41.30
2018-02-21T19:06:06.501Z,41.40
2018-02-21T19:08:34.746Z,41.40
2018-02-21T19:11:03.054Z,41.60
2018-02-21T19:13:31.308Z,41.70
2018-02-21T19:16:00.564Z,41.50
2018-02-21T19:18:28.886Z,41.60
2018-02-21T19:20:58.333Z,41.60
2018-02-21T19:23:27.442Z,41.60
2018-02-21T19:25:56.138Z,41.50
2018-02-21T19:28:24.397Z,41.80
2018-02-21T19:30:53.773Z,41.70
2018-02-21T19:33:21.989Z,41.80
2018-02-21T19:35:50.337Z,41.90
2018-02-21T19:38:18.866Z,42.00
2018-02-21T19:40:47.284Z,42.20
2018-02-21T19:43:15.578Z,42.10
2018-02-21T19:45:43.862Z,41.80
2018-02-21T19:48:12.106Z,41.80
2018-02-21T19:50:40.367Z,41.90
2018-02-21T19:53:09.626Z,41.80
2018-02-21T19:55:37.897Z,42.00
2018-02-21T19:58:09.116Z,42.00
2018-02-21T20:00:37.414Z,42.10
2018-02-21T20:03:05.802Z,42.10
2018-02-21T20:05:34.060Z,42.00
2018-02-21T20:08:03.329Z,41.80
2018-02-21T20:10:32.483Z,41.80
2018-02-21T20:13:00.753Z,41.80
2018-02-21T20:15:29.858Z,41.80
2018-02-21T20:17:59.013Z,41.80
2018-02-21T20:20:28.155Z,41.70
2018-02-21T20:22:56.604Z,41.80
2018-02-21T20:25:25.737Z,42.00
2018-02-21T20:27:54.005Z,42.00
2018-02-21T20:30:23.771Z,41.90
2018-02-21T20:32:52.081Z,42.00
2018-02-21T20:35:20.479Z,41.80
2018-02-21T20:37:48.732Z,42.00
2018-02-21T20:40:17.910Z,42.20
2018-02-21T20:42:46.133Z,42.30
2018-02-21T20:45:14.453Z,42.50
2018-02-21T20:47:43.496Z,42.50
2018-02-21T20:50:12.448Z,42.50
2018-02-21T20:52:40.725Z,42.70
2018-02-21T20:55:08.972Z,42.60
2018-02-21T20:57:37.402Z,42.70
2018-02-21T21:00:08.621Z,43.00
2018-02-21T21:02:39.453Z,42.90
2018-02-21T21:05:07.671Z,43.00
2018-02-21T21:07:36.068Z,43.00
2018-02-21T21:10:04.543Z,43.00
2018-02-21T21:12:32.951Z,43.00
2018-02-21T21:15:01.292Z,42.90
2018-02-21T21:17:29.573Z,43.00
2018-02-21T21:19:57.828Z,43.00
2018-02-21T21:22:27.199Z,42.90
2018-02-21T21:24:55.416Z,43.10
2018-02-21T21:27:23.697Z,43.10
2018-02-21T21:29:51.970Z,43.10
2018-02-21T21:32:20.229Z,43.20
2018-02-21T21:34:48.504Z,43.10
2018-02-21T21:37:17.613Z,43.20
2018-02-21T21:39:46.650Z,43.00
2018-02-21T21:42:14.986Z,43.30
2018-02-21T21:44:43.237Z,43.30
2018-02-21T21:47:12.268Z,43.40
2018-02-21T21:49:40.625Z,43.50
2018-02-21T21:52:09.145Z,43.40
2018-02-21T21:54:37.430Z,43.40
2018-02-21T21:57:05.791Z,43.50
2018-02-21T21:59:34.337Z,43.60
2018-02-21T22:02:03.715Z,43.50
2018-02-21T22:04:31.963Z,43.50
2018-02-21T22:07:00.261Z,43.50
2018-02-21T22:09:28.550Z,43.50
2018-02-21T22:11:56.943Z,43.40
2018-02-21T22:14:26.059Z,43.30
2018-02-21T22:16:54.326Z,43.20
2018-02-21T22:19:22.605Z,43.40
2018-02-21T22:21:50.873Z,43.70
2018-02-21T22:24:19.174Z,43.70
2018-02-21T22:26:47.398Z,43.80
2018-02-21T22:29:15.698Z,43.70
2018-02-21T22:31:44.872Z,43.80
2018-02-21T22:34:27.339Z,43.80
2018-02-21T22:37:01.585Z,43.80
2018-02-21T22:39:30.646Z,44.40
2018-02-21T22:41:59.085Z,43.70
2018-02-21T22:44:28.341Z,43.80
2018-02-21T22:46:56.808Z,43.90
2018-02-21T22:49:25.232Z,44.10
2018-02-21T22:51:54.838Z,43.90
2018-02-21T22:54:24.072Z,44.00
2018-02-21T22:56:52.956Z,44.10
2018-02-21T22:59:21.435Z,44.10
2018-02-21T23:01:49.875Z,44.20
2018-02-21T23:04:19.169Z,44.30
2018-02-21T23:06:47.565Z,44.00
2018-02-21T23:09:16.052Z,44.10
2018-02-21T23:11:44.498Z,44.00
2018-02-21T23:14:12.921Z,44.20
2018-02-21T23:16:41.433Z,44.10
2018-02-21T23:19:09.745Z,45.00
2018-02-21T23:21:38.969Z,44.30
2018-02-21T23:24:07.308Z,44.30
2018-02-21T23:26:35.778Z,44.40
2018-02-21T23:29:04.412Z,44.10
2018-02-21T23:31:32.675Z,44.30
2018-02-21T23:34:00.930Z,44.30
2018-02-21T23:36:30.826Z,44.30
2018-02-21T23:38:59.073Z,44.00
2018-02-21T23:41:28.774Z,44.20
2018-02-21T23:43:57.885Z,44.40
2018-02-21T23:46:26.156Z,44.40
2018-02-21T23:48:55.458Z,44.50
2018-02-21T23:51:24.485Z,44.40
2018-02-21T23:53:52.857Z,44.60
2018-02-21T23:56:21.102Z,44.40
2018-02-21T23:58:50.637Z,44.40
